sensor_id;sensor_type;location;lat;lon;timestamp;P1;durP1;ratioP1;P2;durP2;ratioP2
9689;SDS011;4884;42.614;23.340;2023-06-10T00:01:23;9.30;;;8.50;;
9689;SDS011;4884;42.614;23.340;2023-06-10T00:03:49;8.97;;;8.17;;
9689;SDS011;4884;42.614;23.340;2023-06-10T00:06:15;8.37;;;7.27;;
9689;SDS011;4884;42.614;23.340;2023-06-10T00:08:40;9.80;;;7.83;;
9689;SDS011;4884;42.614;23.340;2023-06-10T00:11:06;12.23;;;7.33;;
9689;SDS011;4884;42.614;23.340;2023-06-10T00:13:31;8.73;;;7.93;;
9689;SDS011;4884;42.614;23.340;2023-06-10T00:15:57;8.33;;;7.73;;
9689;SDS011;4884;42.614;23.340;2023-06-10T00:18:22;9.13;;;8.33;;
9689;SDS011;4884;42.614;23.340;2023-06-10T00:20:48;11.20;;;10.13;;
9689;SDS011;4884;42.614;23.340;2023-06-10T00:23:17;12.40;;;11.30;;
9689;SDS011;4884;42.614;23.340;2023-06-10T00:25:43;13.97;;;11.57;;
9689;SDS011;4884;42.614;23.340;2023-06-10T00:28:08;16.57;;;13.37;;
9689;SDS011;4884;42.614;23.340;2023-06-10T00:30:34;13.33;;;11.87;;
9689;SDS011;4884;42.614;23.340;2023-06-10T00:32:59;12.47;;;11.17;;
9689;SDS011;4884;42.614;23.340;2023-06-10T00:35:25;16.17;;;13.00;;
9689;SDS011;4884;42.614;23.340;2023-06-10T00:37:50;13.70;;;12.40;;
9689;SDS011;4884;42.614;23.340;2023-06-10T00:40:16;15.30;;;13.80;;
9689;SDS011;4884;42.614;23.340;2023-06-10T00:42:41;15.53;;;13.87;;
9689;SDS011;4884;42.614;23.340;2023-06-10T00:45:07;15.93;;;14.33;;
9689;SDS011;4884;42.614;23.340;2023-06-10T00:47:32;18.60;;;13.53;;
9689;SDS011;4884;42.614;23.340;2023-06-10T00:50:00;14.90;;;13.37;;
9689;SDS011;4884;42.614;23.340;2023-06-10T00:52:27;16.80;;;14.47;;
9689;SDS011;4884;42.614;23.340;2023-06-10T00:54:54;15.57;;;14.07;;
9689;SDS011;4884;42.614;23.340;2023-06-10T00:57:19;16.87;;;15.10;;
9689;SDS011;4884;42.614;23.340;2023-06-10T00:59:47;17.17;;;15.30;;
9689;SDS011;4884;42.614;23.340;2023-06-10T01:02:13;17.30;;;15.10;;
9689;SDS011;4884;42.614;23.340;2023-06-10T01:04:38;17.07;;;15.17;;
9689;SDS011;4884;42.614;23.340;2023-06-10T01:14:54;12.70;;;11.03;;
9689;SDS011;4884;42.614;23.340;2023-06-10T01:17:20;13.20;;;12.00;;
9689;SDS011;4884;42.614;23.340;2023-06-10T01:19:53;10.93;;;9.97;;
9689;SDS011;4884;42.614;23.340;2023-06-10T01:22:20;11.50;;;10.27;;
9689;SDS011;4884;42.614;23.340;2023-06-10T01:24:47;11.07;;;10.07;;
9689;SDS011;4884;42.614;23.340;2023-06-10T01:27:15;13.37;;;11.97;;
9689;SDS011;4884;42.614;23.340;2023-06-10T01:29:46;13.27;;;10.33;;
9689;SDS011;4884;42.614;23.340;2023-06-10T01:32:21;12.73;;;10.70;;
9689;SDS011;4884;42.614;23.340;2023-06-10T01:34:50;10.70;;;9.63;;
9689;SDS011;4884;42.614;23.340;2023-06-10T01:37:17;14.33;;;10.73;;
9689;SDS011;4884;42.614;23.340;2023-06-10T01:39:45;17.60;;;11.27;;
9689;SDS011;4884;42.614;23.340;2023-06-10T01:42:11;13.27;;;10.87;;
9689;SDS011;4884;42.614;23.340;2023-06-10T01:44:38;10.80;;;9.70;;
9689;SDS011;4884;42.614;23.340;2023-06-10T01:47:04;12.83;;;11.50;;
9689;SDS011;4884;42.614;23.340;2023-06-10T01:49:30;12.50;;;11.07;;
9689;SDS011;4884;42.614;23.340;2023-06-10T01:51:55;13.37;;;12.17;;
9689;SDS011;4884;42.614;23.340;2023-06-10T01:54:21;12.80;;;11.57;;
9689;SDS011;4884;42.614;23.340;2023-06-10T01:56:46;12.03;;;10.63;;
9689;SDS011;4884;42.614;23.340;2023-06-10T01:59:11;11.43;;;10.30;;
9689;SDS011;4884;42.614;23.340;2023-06-10T02:01:37;12.03;;;10.73;;
9689;SDS011;4884;42.614;23.340;2023-06-10T02:04:02;11.10;;;9.90;;
9689;SDS011;4884;42.614;23.340;2023-06-10T02:06:28;10.70;;;9.77;;
9689;SDS011;4884;42.614;23.340;2023-06-10T02:08:53;12.77;;;10.07;;
9689;SDS011;4884;42.614;23.340;2023-06-10T02:11:19;10.77;;;9.77;;
9689;SDS011;4884;42.614;23.340;2023-06-10T02:13:44;11.60;;;10.20;;
9689;SDS011;4884;42.614;23.340;2023-06-10T02:16:10;10.50;;;9.57;;
9689;SDS011;4884;42.614;23.340;2023-06-10T02:18:38;10.37;;;9.40;;
9689;SDS011;4884;42.614;23.340;2023-06-10T02:21:05;10.27;;;9.27;;
9689;SDS011;4884;42.614;23.340;2023-06-10T02:23:32;9.47;;;8.63;;
9689;SDS011;4884;42.614;23.340;2023-06-10T02:25:57;10.93;;;8.77;;
9689;SDS011;4884;42.614;23.340;2023-06-10T02:28:23;10.70;;;9.27;;
9689;SDS011;4884;42.614;23.340;2023-06-10T02:30:48;10.00;;;9.00;;
9689;SDS011;4884;42.614;23.340;2023-06-10T02:33:13;9.00;;;8.17;;
9689;SDS011;4884;42.614;23.340;2023-06-10T02:35:40;10.00;;;9.00;;
9689;SDS011;4884;42.614;23.340;2023-06-10T02:38:05;9.77;;;8.80;;
9689;SDS011;4884;42.614;23.340;2023-06-10T02:40:31;10.13;;;9.13;;
9689;SDS011;4884;42.614;23.340;2023-06-10T02:42:57;10.67;;;9.57;;
9689;SDS011;4884;42.614;23.340;2023-06-10T02:45:23;9.47;;;7.80;;
9689;SDS011;4884;42.614;23.340;2023-06-10T02:47:48;8.87;;;7.30;;
9689;SDS011;4884;42.614;23.340;2023-06-10T02:50:14;7.27;;;6.57;;
9689;SDS011;4884;42.614;23.340;2023-06-10T02:52:40;8.23;;;6.93;;
9689;SDS011;4884;42.614;23.340;2023-06-10T02:55:06;8.87;;;6.77;;
9689;SDS011;4884;42.614;23.340;2023-06-10T02:57:31;7.87;;;7.00;;
9689;SDS011;4884;42.614;23.340;2023-06-10T02:59:57;7.23;;;6.40;;
9689;SDS011;4884;42.614;23.340;2023-06-10T03:02:23;6.90;;;6.23;;
9689;SDS011;4884;42.614;23.340;2023-06-10T03:04:53;9.03;;;6.60;;
9689;SDS011;4884;42.614;23.340;2023-06-10T03:07:21;6.73;;;5.97;;
9689;SDS011;4884;42.614;23.340;2023-06-10T03:09:46;9.10;;;6.40;;
9689;SDS011;4884;42.614;23.340;2023-06-10T03:12:12;7.47;;;6.40;;
9689;SDS011;4884;42.614;23.340;2023-06-10T03:14:37;7.67;;;6.50;;
9689;SDS011;4884;42.614;23.340;2023-06-10T03:17:04;6.87;;;6.27;;
9689;SDS011;4884;42.614;23.340;2023-06-10T03:19:30;6.73;;;5.23;;
9689;SDS011;4884;42.614;23.340;2023-06-10T03:22:09;5.13;;;4.70;;
9689;SDS011;4884;42.614;23.340;2023-06-10T03:24:38;7.13;;;5.60;;
9689;SDS011;4884;42.614;23.340;2023-06-10T03:27:08;5.43;;;5.00;;
9689;SDS011;4884;42.614;23.340;2023-06-10T03:29:34;6.03;;;5.53;;
9689;SDS011;4884;42.614;23.340;2023-06-10T03:32:00;6.50;;;6.00;;
9689;SDS011;4884;42.614;23.340;2023-06-10T03:34:26;5.60;;;5.10;;
9689;SDS011;4884;42.614;23.340;2023-06-10T03:36:51;4.93;;;4.53;;
9689;SDS011;4884;42.614;23.340;2023-06-10T03:39:17;5.70;;;5.10;;
9689;SDS011;4884;42.614;23.340;2023-06-10T03:41:42;6.40;;;5.77;;
9689;SDS011;4884;42.614;23.340;2023-06-10T03:44:07;6.47;;;5.73;;
9689;SDS011;4884;42.614;23.340;2023-06-10T03:46:33;6.90;;;6.27;;
9689;SDS011;4884;42.614;23.340;2023-06-10T03:48:58;7.10;;;6.40;;
9689;SDS011;4884;42.614;23.340;2023-06-10T03:51:26;7.80;;;7.00;;
9689;SDS011;4884;42.614;23.340;2023-06-10T03:53:51;8.10;;;7.30;;
9689;SDS011;4884;42.614;23.340;2023-06-10T03:56:17;11.17;;;9.97;;
9689;SDS011;4884;42.614;23.340;2023-06-10T03:58:42;10.47;;;9.47;;
9689;SDS011;4884;42.614;23.340;2023-06-10T04:01:08;11.70;;;10.50;;
9689;SDS011;4884;42.614;23.340;2023-06-10T04:03:33;12.73;;;10.97;;
9689;SDS011;4884;42.614;23.340;2023-06-10T04:05:59;13.10;;;10.07;;
9689;SDS011;4884;42.614;23.340;2023-06-10T04:08:24;11.83;;;10.63;;
9689;SDS011;4884;42.614;23.340;2023-06-10T04:10:50;11.33;;;10.10;;
9689;SDS011;4884;42.614;23.340;2023-06-10T04:13:15;11.07;;;10.00;;
9689;SDS011;4884;42.614;23.340;2023-06-10T04:15:41;11.03;;;9.93;;
9689;SDS011;4884;42.614;23.340;2023-06-10T04:18:06;12.40;;;11.13;;
9689;SDS011;4884;42.614;23.340;2023-06-10T04:20:31;11.30;;;10.33;;
9689;SDS011;4884;42.614;23.340;2023-06-10T04:22:57;11.40;;;10.30;;
9689;SDS011;4884;42.614;23.340;2023-06-10T04:25:22;15.50;;;12.47;;
9689;SDS011;4884;42.614;23.340;2023-06-10T04:27:49;13.87;;;12.50;;
9689;SDS011;4884;42.614;23.340;2023-06-10T04:30:15;13.80;;;12.50;;
9689;SDS011;4884;42.614;23.340;2023-06-10T04:32:41;12.00;;;10.90;;
9689;SDS011;4884;42.614;23.340;2023-06-10T04:35:07;13.43;;;12.13;;
9689;SDS011;4884;42.614;23.340;2023-06-10T04:37:32;15.07;;;13.57;;
9689;SDS011;4884;42.614;23.340;2023-06-10T04:39:58;14.93;;;13.37;;
9689;SDS011;4884;42.614;23.340;2023-06-10T04:42:24;13.30;;;12.20;;
9689;SDS011;4884;42.614;23.340;2023-06-10T04:44:49;15.60;;;13.30;;
9689;SDS011;4884;42.614;23.340;2023-06-10T04:47:15;16.37;;;13.20;;
9689;SDS011;4884;42.614;23.340;2023-06-10T04:49:42;18.53;;;13.93;;
9689;SDS011;4884;42.614;23.340;2023-06-10T04:52:07;15.47;;;14.00;;
9689;SDS011;4884;42.614;23.340;2023-06-10T04:54:33;17.30;;;14.53;;
9689;SDS011;4884;42.614;23.340;2023-06-10T04:56:58;16.90;;;15.27;;
9689;SDS011;4884;42.614;23.340;2023-06-10T04:59:25;18.47;;;16.13;;
9689;SDS011;4884;42.614;23.340;2023-06-10T05:01:51;19.73;;;16.00;;
9689;SDS011;4884;42.614;23.340;2023-06-10T05:04:16;17.53;;;15.90;;
9689;SDS011;4884;42.614;23.340;2023-06-10T05:06:41;17.27;;;15.47;;
9689;SDS011;4884;42.614;23.340;2023-06-10T05:09:07;17.33;;;15.73;;
9689;SDS011;4884;42.614;23.340;2023-06-10T05:11:32;17.73;;;15.93;;
9689;SDS011;4884;42.614;23.340;2023-06-10T05:13:58;18.37;;;16.63;;
9689;SDS011;4884;42.614;23.340;2023-06-10T05:16:23;18.13;;;16.43;;
9689;SDS011;4884;42.614;23.340;2023-06-10T05:18:48;17.67;;;15.97;;
9689;SDS011;4884;42.614;23.340;2023-06-10T05:21:15;18.50;;;16.63;;
9689;SDS011;4884;42.614;23.340;2023-06-10T05:23:41;18.83;;;16.83;;
9689;SDS011;4884;42.614;23.340;2023-06-10T05:26:06;17.20;;;15.60;;
9689;SDS011;4884;42.614;23.340;2023-06-10T05:28:32;16.40;;;14.97;;
9689;SDS011;4884;42.614;23.340;2023-06-10T05:30:57;17.80;;;15.93;;
9689;SDS011;4884;42.614;23.340;2023-06-10T05:33:23;17.73;;;15.90;;
9689;SDS011;4884;42.614;23.340;2023-06-10T05:35:48;17.97;;;16.27;;
9689;SDS011;4884;42.614;23.340;2023-06-10T05:38:14;19.00;;;17.13;;
9689;SDS011;4884;42.614;23.340;2023-06-10T05:40:39;18.73;;;16.93;;
9689;SDS011;4884;42.614;23.340;2023-06-10T05:43:05;20.57;;;17.60;;
9689;SDS011;4884;42.614;23.340;2023-06-10T05:45:30;20.50;;;17.90;;
9689;SDS011;4884;42.614;23.340;2023-06-10T05:47:55;20.30;;;18.43;;
9689;SDS011;4884;42.614;23.340;2023-06-10T05:50:21;19.97;;;17.97;;
9689;SDS011;4884;42.614;23.340;2023-06-10T05:52:46;19.40;;;17.40;;
9689;SDS011;4884;42.614;23.340;2023-06-10T05:55:12;19.47;;;17.50;;
9689;SDS011;4884;42.614;23.340;2023-06-10T05:57:37;19.13;;;17.33;;
9689;SDS011;4884;42.614;23.340;2023-06-10T06:00:03;18.43;;;16.63;;
9689;SDS011;4884;42.614;23.340;2023-06-10T06:02:29;19.23;;;17.23;;
9689;SDS011;4884;42.614;23.340;2023-06-10T06:04:54;19.20;;;16.37;;
9689;SDS011;4884;42.614;23.340;2023-06-10T06:07:20;18.83;;;16.87;;
9689;SDS011;4884;42.614;23.340;2023-06-10T06:09:46;20.93;;;16.40;;
9689;SDS011;4884;42.614;23.340;2023-06-10T06:12:12;16.23;;;14.83;;
9689;SDS011;4884;42.614;23.340;2023-06-10T06:14:38;18.70;;;17.00;;
9689;SDS011;4884;42.614;23.340;2023-06-10T06:17:06;18.03;;;16.43;;
9689;SDS011;4884;42.614;23.340;2023-06-10T06:19:32;17.87;;;16.17;;
9689;SDS011;4884;42.614;23.340;2023-06-10T06:21:58;17.70;;;16.00;;
9689;SDS011;4884;42.614;23.340;2023-06-10T06:24:23;17.97;;;16.17;;
9689;SDS011;4884;42.614;23.340;2023-06-10T06:26:49;17.53;;;15.83;;
9689;SDS011;4884;42.614;23.340;2023-06-10T06:29:14;17.90;;;15.93;;
9689;SDS011;4884;42.614;23.340;2023-06-10T06:31:40;16.07;;;14.57;;
9689;SDS011;4884;42.614;23.340;2023-06-10T06:34:05;16.17;;;14.60;;
9689;SDS011;4884;42.614;23.340;2023-06-10T06:36:31;16.90;;;15.27;;
9689;SDS011;4884;42.614;23.340;2023-06-10T06:38:56;16.60;;;14.90;;
9689;SDS011;4884;42.614;23.340;2023-06-10T06:41:23;16.87;;;15.33;;
9689;SDS011;4884;42.614;23.340;2023-06-10T06:43:50;14.90;;;13.40;;
9689;SDS011;4884;42.614;23.340;2023-06-10T06:46:16;14.67;;;13.17;;
9689;SDS011;4884;42.614;23.340;2023-06-10T06:48:41;15.13;;;13.83;;
9689;SDS011;4884;42.614;23.340;2023-06-10T06:51:06;15.03;;;13.60;;
9689;SDS011;4884;42.614;23.340;2023-06-10T06:53:32;16.13;;;14.63;;
9689;SDS011;4884;42.614;23.340;2023-06-10T06:55:57;18.20;;;16.40;;
9689;SDS011;4884;42.614;23.340;2023-06-10T06:58:23;17.60;;;15.90;;
9689;SDS011;4884;42.614;23.340;2023-06-10T07:00:48;14.77;;;13.37;;
9689;SDS011;4884;42.614;23.340;2023-06-10T07:03:13;15.67;;;14.00;;
9689;SDS011;4884;42.614;23.340;2023-06-10T07:05:39;15.47;;;13.73;;
9689;SDS011;4884;42.614;23.340;2023-06-10T07:08:04;13.47;;;12.33;;
9689;SDS011;4884;42.614;23.340;2023-06-10T07:10:30;15.27;;;13.13;;
9689;SDS011;4884;42.614;23.340;2023-06-10T07:12:55;13.60;;;12.50;;
9689;SDS011;4884;42.614;23.340;2023-06-10T07:15:21;12.77;;;11.57;;
9689;SDS011;4884;42.614;23.340;2023-06-10T07:17:46;13.13;;;11.93;;
9689;SDS011;4884;42.614;23.340;2023-06-10T07:20:12;16.77;;;11.87;;
9689;SDS011;4884;42.614;23.340;2023-06-10T07:22:38;10.60;;;9.70;;
9689;SDS011;4884;42.614;23.340;2023-06-10T07:25:04;10.97;;;9.93;;
9689;SDS011;4884;42.614;23.340;2023-06-10T07:27:30;11.20;;;10.17;;
9689;SDS011;4884;42.614;23.340;2023-06-10T07:29:55;21.33;;;15.17;;
9689;SDS011;4884;42.614;23.340;2023-06-10T07:32:21;15.83;;;12.27;;
9689;SDS011;4884;42.614;23.340;2023-06-10T07:34:48;11.10;;;9.93;;
9689;SDS011;4884;42.614;23.340;2023-06-10T07:37:14;11.90;;;10.07;;
9689;SDS011;4884;42.614;23.340;2023-06-10T07:39:40;10.43;;;9.43;;
9689;SDS011;4884;42.614;23.340;2023-06-10T07:42:05;10.07;;;9.10;;
9689;SDS011;4884;42.614;23.340;2023-06-10T07:44:31;10.73;;;9.63;;
9689;SDS011;4884;42.614;23.340;2023-06-10T07:46:56;13.40;;;9.73;;
9689;SDS011;4884;42.614;23.340;2023-06-10T07:49:23;10.27;;;9.20;;
9689;SDS011;4884;42.614;23.340;2023-06-10T07:51:50;11.03;;;9.37;;
9689;SDS011;4884;42.614;23.340;2023-06-10T07:54:15;9.63;;;8.63;;
9689;SDS011;4884;42.614;23.340;2023-06-10T07:56:41;11.47;;;8.20;;
9689;SDS011;4884;42.614;23.340;2023-06-10T07:59:06;12.43;;;8.30;;
9689;SDS011;4884;42.614;23.340;2023-06-10T08:01:31;8.20;;;7.50;;
9689;SDS011;4884;42.614;23.340;2023-06-10T08:03:58;7.67;;;6.87;;
9689;SDS011;4884;42.614;23.340;2023-06-10T08:06:23;8.53;;;7.33;;
9689;SDS011;4884;42.614;23.340;2023-06-10T08:08:48;8.05;;;7.20;;
9689;SDS011;4884;42.614;23.340;2023-06-10T08:11:14;7.75;;;7.05;;
9689;SDS011;4884;42.614;23.340;2023-06-10T08:13:39;9.45;;;7.63;;
9689;SDS011;4884;42.614;23.340;2023-06-10T08:16:05;10.73;;;5.65;;
9689;SDS011;4884;42.614;23.340;2023-06-10T08:18:30;12.10;;;6.97;;
9689;SDS011;4884;42.614;23.340;2023-06-10T08:20:56;9.75;;;5.07;;
9689;SDS011;4884;42.614;23.340;2023-06-10T08:23:22;6.65;;;5.90;;
9689;SDS011;4884;42.614;23.340;2023-06-10T08:25:47;6.45;;;5.00;;
9689;SDS011;4884;42.614;23.340;2023-06-10T08:28:12;5.10;;;4.28;;
9689;SDS011;4884;42.614;23.340;2023-06-10T08:30:38;4.57;;;4.18;;
9689;SDS011;4884;42.614;23.340;2023-06-10T08:33:03;3.95;;;3.55;;
9689;SDS011;4884;42.614;23.340;2023-06-10T08:35:28;5.72;;;3.92;;
9689;SDS011;4884;42.614;23.340;2023-06-10T08:37:54;5.07;;;4.57;;
9689;SDS011;4884;42.614;23.340;2023-06-10T08:40:20;5.25;;;4.40;;
9689;SDS011;4884;42.614;23.340;2023-06-10T08:42:48;4.53;;;4.13;;
9689;SDS011;4884;42.614;23.340;2023-06-10T08:45:26;4.95;;;4.55;;
9689;SDS011;4884;42.614;23.340;2023-06-10T08:47:56;4.72;;;4.30;;
9689;SDS011;4884;42.614;23.340;2023-06-10T08:50:22;3.50;;;3.20;;
9689;SDS011;4884;42.614;23.340;2023-06-10T08:52:48;4.65;;;3.58;;
9689;SDS011;4884;42.614;23.340;2023-06-10T08:55:21;9.40;;;4.50;;
9689;SDS011;4884;42.614;23.340;2023-06-10T08:57:51;4.55;;;3.90;;
9689;SDS011;4884;42.614;23.340;2023-06-10T09:00:17;4.72;;;3.78;;
9689;SDS011;4884;42.614;23.340;2023-06-10T09:02:43;6.78;;;3.63;;
9689;SDS011;4884;42.614;23.340;2023-06-10T09:05:09;5.43;;;3.72;;
9689;SDS011;4884;42.614;23.340;2023-06-10T09:07:35;3.72;;;3.22;;
9689;SDS011;4884;42.614;23.340;2023-06-10T09:10:01;4.53;;;4.13;;
9689;SDS011;4884;42.614;23.340;2023-06-10T09:12:32;4.50;;;4.10;;
9689;SDS011;4884;42.614;23.340;2023-06-10T09:15:01;4.68;;;4.28;;
9689;SDS011;4884;42.614;23.340;2023-06-10T09:17:27;4.78;;;4.03;;
9689;SDS011;4884;42.614;23.340;2023-06-10T09:19:53;7.20;;;4.25;;
9689;SDS011;4884;42.614;23.340;2023-06-10T09:22:21;5.68;;;3.50;;
9689;SDS011;4884;42.614;23.340;2023-06-10T09:24:47;5.13;;;4.07;;
9689;SDS011;4884;42.614;23.340;2023-06-10T09:27:13;5.13;;;4.63;;
9689;SDS011;4884;42.614;23.340;2023-06-10T09:32:17;5.30;;;4.80;;
9689;SDS011;4884;42.614;23.340;2023-06-10T09:34:43;5.03;;;3.97;;
9689;SDS011;4884;42.614;23.340;2023-06-10T09:37:09;5.18;;;4.70;;
9689;SDS011;4884;42.614;23.340;2023-06-10T09:39:37;7.45;;;4.05;;
9689;SDS011;4884;42.614;23.340;2023-06-10T09:42:15;4.75;;;4.35;;
9689;SDS011;4884;42.614;23.340;2023-06-10T09:44:41;3.80;;;3.50;;
9689;SDS011;4884;42.614;23.340;2023-06-10T09:47:06;4.43;;;3.92;;
9689;SDS011;4884;42.614;23.340;2023-06-10T09:49:32;4.82;;;4.45;;
9689;SDS011;4884;42.614;23.340;2023-06-10T09:51:57;4.55;;;3.92;;
9689;SDS011;4884;42.614;23.340;2023-06-10T09:54:23;4.68;;;4.28;;
9689;SDS011;4884;42.614;23.340;2023-06-10T09:56:49;5.03;;;4.15;;
9689;SDS011;4884;42.614;23.340;2023-06-10T09:59:15;4.53;;;4.18;;
9689;SDS011;4884;42.614;23.340;2023-06-10T10:01:41;3.60;;;3.30;;
9689;SDS011;4884;42.614;23.340;2023-06-10T10:04:06;3.80;;;3.50;;
9689;SDS011;4884;42.614;23.340;2023-06-10T10:06:32;3.47;;;3.20;;
9689;SDS011;4884;42.614;23.340;2023-06-10T10:08:57;4.20;;;3.40;;
9689;SDS011;4884;42.614;23.340;2023-06-10T10:11:23;3.60;;;3.30;;
9689;SDS011;4884;42.614;23.340;2023-06-10T10:13:49;3.75;;;3.40;;
9689;SDS011;4884;42.614;23.340;2023-06-10T10:16:36;4.13;;;3.70;;
9689;SDS011;4884;42.614;23.340;2023-06-10T10:19:27;4.90;;;4.30;;
9689;SDS011;4884;42.614;23.340;2023-06-10T10:21:54;4.45;;;3.95;;
9689;SDS011;4884;42.614;23.340;2023-06-10T10:24:31;3.97;;;3.67;;
9689;SDS011;4884;42.614;23.340;2023-06-10T10:26:59;3.85;;;3.33;;
9689;SDS011;4884;42.614;23.340;2023-06-10T10:29:46;5.15;;;3.38;;
9689;SDS011;4884;42.614;23.340;2023-06-10T10:32:13;4.25;;;3.65;;
9689;SDS011;4884;42.614;23.340;2023-06-10T10:37:11;4.78;;;3.60;;
9689;SDS011;4884;42.614;23.340;2023-06-10T10:39:36;6.45;;;3.97;;
9689;SDS011;4884;42.614;23.340;2023-06-10T10:42:02;5.80;;;4.15;;
9689;SDS011;4884;42.614;23.340;2023-06-10T10:44:30;4.30;;;3.97;;
9689;SDS011;4884;42.614;23.340;2023-06-10T10:46:55;6.60;;;4.65;;
9689;SDS011;4884;42.614;23.340;2023-06-10T10:49:22;4.70;;;4.13;;
9689;SDS011;4884;42.614;23.340;2023-06-10T10:51:54;4.75;;;4.35;;
9689;SDS011;4884;42.614;23.340;2023-06-10T10:54:27;4.25;;;3.92;;
9689;SDS011;4884;42.614;23.340;2023-06-10T10:59:58;5.03;;;3.53;;
9689;SDS011;4884;42.614;23.340;2023-06-10T11:05:09;5.07;;;4.57;;
9689;SDS011;4884;42.614;23.340;2023-06-10T11:07:35;5.15;;;4.65;;
9689;SDS011;4884;42.614;23.340;2023-06-10T11:10:11;4.78;;;4.38;;
9689;SDS011;4884;42.614;23.340;2023-06-10T11:12:53;4.72;;;4.05;;
9689;SDS011;4884;42.614;23.340;2023-06-10T11:15:23;4.22;;;3.78;;
9689;SDS011;4884;42.614;23.340;2023-06-10T11:26:11;4.13;;;3.67;;
9689;SDS011;4884;42.614;23.340;2023-06-10T11:29:01;3.65;;;3.30;;
9689;SDS011;4884;42.614;23.340;2023-06-10T11:31:28;4.03;;;3.70;;
9689;SDS011;4884;42.614;23.340;2023-06-10T11:36:25;4.43;;;3.95;;
9689;SDS011;4884;42.614;23.340;2023-06-10T11:41:24;7.03;;;4.35;;
9689;SDS011;4884;42.614;23.340;2023-06-10T11:43:51;4.68;;;4.28;;
9689;SDS011;4884;42.614;23.340;2023-06-10T11:46:17;5.80;;;4.13;;
9689;SDS011;4884;42.614;23.340;2023-06-10T11:48:52;5.03;;;4.53;;
9689;SDS011;4884;42.614;23.340;2023-06-10T11:51:20;5.47;;;5.07;;
9689;SDS011;4884;42.614;23.340;2023-06-10T11:53:49;4.05;;;3.72;;
9689;SDS011;4884;42.614;23.340;2023-06-10T11:56:25;4.80;;;4.32;;
9689;SDS011;4884;42.614;23.340;2023-06-10T11:59:05;4.35;;;4.05;;
9689;SDS011;4884;42.614;23.340;2023-06-10T12:01:33;6.50;;;5.05;;
9689;SDS011;4884;42.614;23.340;2023-06-10T12:09:13;4.90;;;3.92;;
9689;SDS011;4884;42.614;23.340;2023-06-10T12:11:59;4.35;;;3.95;;
9689;SDS011;4884;42.614;23.340;2023-06-10T12:17:21;4.53;;;4.10;;
9689;SDS011;4884;42.614;23.340;2023-06-10T12:19:47;4.40;;;4.00;;
9689;SDS011;4884;42.614;23.340;2023-06-10T12:22:13;4.20;;;3.80;;
9689;SDS011;4884;42.614;23.340;2023-06-10T12:24:56;4.28;;;3.67;;
9689;SDS011;4884;42.614;23.340;2023-06-10T12:27:26;3.88;;;3.58;;
9689;SDS011;4884;42.614;23.340;2023-06-10T12:29:55;5.13;;;4.63;;
9689;SDS011;4884;42.614;23.340;2023-06-10T12:32:21;4.25;;;3.90;;
9689;SDS011;4884;42.614;23.340;2023-06-10T12:35:01;4.70;;;4.20;;
9689;SDS011;4884;42.614;23.340;2023-06-10T12:37:29;4.43;;;4.13;;
9689;SDS011;4884;42.614;23.340;2023-06-10T12:39:54;4.05;;;3.65;;
9689;SDS011;4884;42.614;23.340;2023-06-10T12:42:22;4.80;;;3.83;;
9689;SDS011;4884;42.614;23.340;2023-06-10T12:44:52;4.32;;;3.92;;
9689;SDS011;4884;42.614;23.340;2023-06-10T12:47:18;4.57;;;4.18;;
9689;SDS011;4884;42.614;23.340;2023-06-10T12:49:43;4.53;;;4.18;;
9689;SDS011;4884;42.614;23.340;2023-06-10T12:52:09;4.70;;;4.20;;
9689;SDS011;4884;42.614;23.340;2023-06-10T12:54:34;5.20;;;3.85;;
9689;SDS011;4884;42.614;23.340;2023-06-10T12:57:00;4.28;;;3.97;;
9689;SDS011;4884;42.614;23.340;2023-06-10T12:59:26;4.18;;;3.70;;
9689;SDS011;4884;42.614;23.340;2023-06-10T13:01:52;5.40;;;3.60;;
9689;SDS011;4884;42.614;23.340;2023-06-10T13:04:19;4.45;;;3.42;;
9689;SDS011;4884;42.614;23.340;2023-06-10T13:06:45;6.07;;;4.28;;
9689;SDS011;4884;42.614;23.340;2023-06-10T13:09:12;5.50;;;3.95;;
9689;SDS011;4884;42.614;23.340;2023-06-10T13:11:37;5.00;;;3.97;;
9689;SDS011;4884;42.614;23.340;2023-06-10T13:14:03;4.05;;;3.75;;
9689;SDS011;4884;42.614;23.340;2023-06-10T13:16:30;4.38;;;4.07;;
9689;SDS011;4884;42.614;23.340;2023-06-10T13:18:56;4.75;;;4.35;;
9689;SDS011;4884;42.614;23.340;2023-06-10T13:21:22;4.57;;;4.20;;
9689;SDS011;4884;42.614;23.340;2023-06-10T13:23:47;5.10;;;4.18;;
9689;SDS011;4884;42.614;23.340;2023-06-10T13:26:14;5.22;;;4.38;;
9689;SDS011;4884;42.614;23.340;2023-06-10T13:28:41;6.30;;;4.38;;
9689;SDS011;4884;42.614;23.340;2023-06-10T13:31:07;8.38;;;4.63;;
9689;SDS011;4884;42.614;23.340;2023-06-10T13:33:32;4.40;;;4.00;;
9689;SDS011;4884;42.614;23.340;2023-06-10T13:35:58;4.32;;;3.92;;
9689;SDS011;4884;42.614;23.340;2023-06-10T13:38:23;5.75;;;4.65;;
9689;SDS011;4884;42.614;23.340;2023-06-10T13:40:48;5.65;;;4.72;;
9689;SDS011;4884;42.614;23.340;2023-06-10T13:43:14;6.53;;;4.72;;
9689;SDS011;4884;42.614;23.340;2023-06-10T13:45:40;4.80;;;4.40;;
9689;SDS011;4884;42.614;23.340;2023-06-10T13:48:05;6.13;;;5.18;;
9689;SDS011;4884;42.614;23.340;2023-06-10T13:50:31;5.40;;;4.40;;
9689;SDS011;4884;42.614;23.340;2023-06-10T13:52:56;6.13;;;4.37;;
9689;SDS011;4884;42.614;23.340;2023-06-10T13:55:22;7.03;;;4.90;;
9689;SDS011;4884;42.614;23.340;2023-06-10T13:57:49;5.77;;;4.53;;
9689;SDS011;4884;42.614;23.340;2023-06-10T14:00:15;4.90;;;4.23;;
9689;SDS011;4884;42.614;23.340;2023-06-10T14:02:41;6.50;;;5.10;;
9689;SDS011;4884;42.614;23.340;2023-06-10T14:05:06;9.00;;;5.33;;
9689;SDS011;4884;42.614;23.340;2023-06-10T14:07:33;7.07;;;4.73;;
9689;SDS011;4884;42.614;23.340;2023-06-10T14:09:59;5.30;;;4.80;;
9689;SDS011;4884;42.614;23.340;2023-06-10T14:12:24;4.90;;;4.50;;
9689;SDS011;4884;42.614;23.340;2023-06-10T14:14:50;6.10;;;5.50;;
9689;SDS011;4884;42.614;23.340;2023-06-10T14:17:15;6.17;;;5.53;;
9689;SDS011;4884;42.614;23.340;2023-06-10T14:19:41;8.10;;;5.87;;
9689;SDS011;4884;42.614;23.340;2023-06-10T14:22:06;7.70;;;5.97;;
9689;SDS011;4884;42.614;23.340;2023-06-10T14:24:32;5.33;;;4.83;;
9689;SDS011;4884;42.614;23.340;2023-06-10T14:26:58;6.07;;;5.50;;
9689;SDS011;4884;42.614;23.340;2023-06-10T14:29:23;5.67;;;5.17;;
9689;SDS011;4884;42.614;23.340;2023-06-10T14:31:49;9.63;;;5.37;;
9689;SDS011;4884;42.614;23.340;2023-06-10T14:34:14;7.70;;;6.03;;
9689;SDS011;4884;42.614;23.340;2023-06-10T14:36:42;7.20;;;6.20;;
9689;SDS011;4884;42.614;23.340;2023-06-10T14:39:08;7.93;;;5.80;;
9689;SDS011;4884;42.614;23.340;2023-06-10T14:41:33;6.37;;;5.50;;
9689;SDS011;4884;42.614;23.340;2023-06-10T14:43:59;6.43;;;5.73;;
9689;SDS011;4884;42.614;23.340;2023-06-10T14:46:24;6.37;;;5.73;;
9689;SDS011;4884;42.614;23.340;2023-06-10T14:48:50;8.93;;;5.73;;
9689;SDS011;4884;42.614;23.340;2023-06-10T14:51:16;6.33;;;5.73;;
9689;SDS011;4884;42.614;23.340;2023-06-10T14:53:41;6.97;;;5.57;;
9689;SDS011;4884;42.614;23.340;2023-06-10T14:56:06;6.17;;;5.50;;
9689;SDS011;4884;42.614;23.340;2023-06-10T14:58:32;6.40;;;5.77;;
9689;SDS011;4884;42.614;23.340;2023-06-10T15:00:57;7.20;;;6.50;;
9689;SDS011;4884;42.614;23.340;2023-06-10T15:03:23;6.43;;;5.83;;
9689;SDS011;4884;42.614;23.340;2023-06-10T15:05:48;6.17;;;5.17;;
9689;SDS011;4884;42.614;23.340;2023-06-10T15:08:14;5.33;;;4.77;;
9689;SDS011;4884;42.614;23.340;2023-06-10T15:10:39;5.87;;;5.37;;
9689;SDS011;4884;42.614;23.340;2023-06-10T15:13:05;5.40;;;4.90;;
9689;SDS011;4884;42.614;23.340;2023-06-10T15:15:31;5.40;;;4.90;;
9689;SDS011;4884;42.614;23.340;2023-06-10T15:17:56;6.27;;;5.17;;
9689;SDS011;4884;42.614;23.340;2023-06-10T15:20:21;6.40;;;5.80;;
9689;SDS011;4884;42.614;23.340;2023-06-10T15:22:47;6.10;;;5.50;;
9689;SDS011;4884;42.614;23.340;2023-06-10T15:25:12;6.83;;;5.50;;
9689;SDS011;4884;42.614;23.340;2023-06-10T15:27:38;8.00;;;4.83;;